Time;durP1;ratioP1;P1;durP2;ratioP2;P2;SDS_P1;SDS_P2;PMS_P1;PMS_P2;Temp;Humidity;BMP_temperature;BMP_pressure;BME280_temperature;BME280_humidity;BME280_pressure;Samples;Min_cycle;Max_cycle;Signal;HPM_P1;HPM_P2
2022/10/30 00:01:28;;;;;;;1.35;1.35;;;;;;;;;;4958228;28;20433;-50
2022/10/30 00:03:54;;;;;;;;;;;;;;;;;;4962649;28;20081;-49
2022/10/30 00:06:20;;;;;;;;;;;;;;;;;;4957826;28;19917;-49
2022/10/30 00:08:46;;;;;;;;;;;;;;;;;;4951858;28;20012;-49
2022/10/30 00:11:12;;;;;;;;;;;;;;;;;;4965561;28;19972;-49
2022/10/30 00:13:38;;;;;;;;;;;;;;;;;;4945734;28;19918;-49
2022/10/30 00:16:04;;;;;;;;;;;;;;;;;;4950347;28;19972;-49
2022/10/30 00:18:30;;;;;;;;;;;;;;;;;;4932503;28;20748;-49
2022/10/30 00:20:55;;;;;;;;;;;;;;;;;;4948057;28;20016;-50
2022/10/30 00:23:21;;;;;;;;;;;;;;;;;;4955709;28;20012;-49
2022/10/30 00:25:47;;;;;;;;;;;;;;;;;;4953843;28;19922;-49
2022/10/30 00:28:13;;;;;;;;;;;;;;;;;;4959533;28;20008;-49
2022/10/30 00:30:39;;;;;;;;;;;;;;;;;;4968766;28;19921;-50
2022/10/30 00:33:05;;;;;;;;;;;;;;;;;;4958013;28;20054;-50
2022/10/30 00:35:31;;;;;;;;;;;;;;;;;;4951223;28;19914;-50
2022/10/30 00:37:57;;;;;;;;;;;;;;;;;;4956988;28;20337;-50
2022/10/30 00:40:23;;;;;;;;;;;;;;;;;;4957520;28;20056;-49
2022/10/30 00:42:49;;;;;;;;;;;;;;;;;;4961184;28;19947;-50
2022/10/30 00:45:14;;;;;;;;;;;;;;;;;;4951378;28;20295;-50
2022/10/30 00:47:40;;;;;;;;;;;;;;;;;;4947897;28;19977;-50
2022/10/30 00:50:06;;;;;;;;;;;;;;;;;;4948712;28;19922;-50
2022/10/30 00:52:32;;;;;;;;;;;;;;;;;;4945191;28;20031;-49
2022/10/30 00:54:58;;;;;;;;;;;;;;;;;;4954597;28;19984;-50
2022/10/30 00:57:24;;;;;;;;;;;;;;;;;;4950819;28;20354;-49
2022/10/30 00:59:50;;;;;;;;;;;;;;;;;;4954802;28;19922;-50
2022/10/30 01:02:16;;;;;;;;;;;;;;;;;;4948874;28;19993;-49
2022/10/30 01:04:41;;;;;;;;;;;;;;;;;;4941829;28;19917;-49
2022/10/30 01:07:07;;;;;;;;;;;;;;;;;;4940195;28;20118;-50
2022/10/30 01:09:33;;;;;;;;;;;;;;;;;;4950021;28;19929;-50
2022/10/30 01:12:00;;;;;;;;;;;;;;;;;;4937456;28;21506;-50
2022/10/30 01:14:26;;;;;;;;;;;;;;;;;;4952376;28;19940;-50
2022/10/30 01:16:52;;;;;;;;;;;;;;;;;;4948648;28;19923;-50
2022/10/30 01:19:18;;;;;;;;;;;;;;;;;;4955358;28;19917;-48
2022/10/30 01:21:44;;;;;;;;;;;;;;;;;;4953997;28;20373;-49
2022/10/30 01:24:09;;;;;;;;;;;;;;;;;;4955033;28;20348;-50
2022/10/30 01:26:35;;;;;;;;;;;;;;;;;;4958200;28;19925;-50
2022/10/30 01:29:01;;;;;;;;;;;;;;;;;;4950874;28;19921;-49
2022/10/30 01:31:27;;;;;;;;;;;;;;;;;;4966804;28;20448;-50
2022/10/30 01:33:53;;;;;;;;;;;;;;;;;;4968710;28;19917;-49
2022/10/30 01:36:19;;;;;;;;;;;;;;;;;;4964067;28;19922;-49
2022/10/30 01:38:45;;;;;;;;;;;;;;;;;;4976061;28;20354;-49
2022/10/30 01:41:11;;;;;;;;;;;;;;;;;;4974774;28;19925;-49
2022/10/30 01:43:36;;;;;;;;;;;;;;;;;;4967854;28;19939;-50
2022/10/30 01:46:02;;;;;;;;;;;;;;;;;;4979796;28;19921;-50
2022/10/30 01:48:28;;;;;;;;;;;;;;;;;;4957848;28;19925;-50
2022/10/30 01:50:54;;;;;;;;;;;;;;;;;;4954518;28;20374;-50
2022/10/30 01:53:20;;;;;;;;;;;;;;;;;;4951980;28;19925;-50
2022/10/30 01:55:46;;;;;;;;;;;;;;;;;;4967418;28;19949;-49
2022/10/30 01:58:11;;;;;;;;;;;;;;;;;;4962930;28;19929;-49
2022/10/30 02:00:37;;;;;;;;;;;;;;;;;;4950504;28;19925;-50
2022/10/30 02:03:04;;;;;;;;;;;;;;;;;;4945791;28;19921;-50
2022/10/30 02:05:30;;;;;;;;;;;;;;;;;;4951795;28;20360;-49
2022/10/30 02:07:55;;;;;;;;;;;;;;;;;;4946176;28;19918;-49
2022/10/30 02:10:21;;;;;;;;;;;;;;;;;;4959347;28;20270;-50
2022/10/30 02:12:47;;;;;;;;;;;;;;;;;;4958873;28;20016;-50
2022/10/30 02:15:13;;;;;;;;;;;;;;;;;;4949495;28;19925;-49
2022/10/30 02:17:39;;;;;;;;;;;;;;;;;;4965562;28;21533;-49
2022/10/30 02:20:05;;;;;;;;;;;;;;;;;;4951519;28;19929;-49
2022/10/30 02:22:31;;;;;;;;;;;;;;;;;;4955941;28;19917;-49
2022/10/30 02:24:57;;;;;;;;;;;;;;;;;;4961946;28;20010;-49
2022/10/30 02:27:23;;;;;;;;;;;;;;;;;;4955717;28;19929;-49
2022/10/30 02:29:48;;;;;;;;;;;;;;;;;;4966496;28;21241;-49
2022/10/30 02:32:14;;;;;;;;;;;;;;;;;;4950464;28;20017;-49
2022/10/30 02:34:41;;;;;;;;;;;;;;;;;;4953047;28;20409;-49
2022/10/30 02:37:08;;;;;;;;;;;;;;;;;;4950359;28;19922;-50
2022/10/30 02:39:34;;;;;;;;;;;;;;;;;;4950816;28;19926;-49
2022/10/30 02:42:01;;;;;;;;;;;;;;;;;;4949264;28;19963;-49
2022/10/30 02:44:26;;;;;;;;;;;;;;;;;;4950845;28;19922;-49
2022/10/30 02:46:52;;;;;;;;;;;;;;;;;;4955384;28;20030;-49
2022/10/30 02:49:18;;;;;;;;;;;;;;;;;;4949367;28;19913;-49
2022/10/30 02:51:44;;;;;;;;;;;;;;;;;;4952027;28;20020;-49
2022/10/30 02:54:10;;;;;;;;;;;;;;;;;;4944900;28;19921;-49
2022/10/30 02:56:36;;;;;;;;;;;;;;;;;;4948188;28;21994;-49
2022/10/30 02:59:02;;;;;;;;;;;;;;;;;;4949670;28;19953;-49
2022/10/30 03:01:27;;;;;;;;;;;;;;;;;;4948021;28;19936;-49
2022/10/30 03:03:53;;;;;;;;;;;;;;;;;;4950681;28;20814;-49
2022/10/30 03:06:19;;;;;;;;;;;;;;;;;;4950698;28;19939;-49
2022/10/30 03:08:45;;;;;;;;;;;;;;;;;;4950128;28;19928;-49
2022/10/30 03:11:11;;;;;;;;;;;;;;;;;;4942270;28;20293;-49
2022/10/30 03:13:39;;;;;;;;;;;;;;;;;;4954883;28;19922;-50
2022/10/30 03:16:05;;;;;;;;;;;;;;;;;;4934270;28;19922;-49
2022/10/30 03:18:31;;;;;;;;;;;;;;;;;;4946480;28;20300;-49
2022/10/30 03:20:57;;;;;;;;;;;;;;;;;;4938834;28;19922;-49
2022/10/30 03:23:23;;;;;;;;;;;;;;;;;;4947575;28;19921;-49
2022/10/30 03:25:48;;;;;;;;;;;;;;;;;;4944263;28;19929;-49
2022/10/30 03:28:14;;;;;;;;;;;;;;;;;;4952300;28;19922;-49
2022/10/30 03:30:41;;;;;;;;;;;;;;;;;;4949099;28;19921;-49
2022/10/30 03:33:07;;;;;;;;;;;;;;;;;;4964035;28;19957;-49
2022/10/30 03:35:33;;;;;;;;;;;;;;;;;;4947403;28;19924;-49
2022/10/30 03:37:58;;;;;;;;;;;;;;;;;;4952757;28;19927;-49
2022/10/30 03:40:24;;;;;;;;;;;;;;;;;;4951410;28;20361;-49
2022/10/30 03:42:50;;;;;;;;;;;;;;;;;;4947146;28;19929;-49
2022/10/30 03:45:16;;;;;;;;;;;;;;;;;;4975937;28;20372;-50
2022/10/30 03:47:42;;;;;;;;;;;;;;;;;;4968700;28;19956;-49
2022/10/30 03:50:08;;;;;;;;;;;;;;;;;;4958675;28;19926;-49
2022/10/30 03:52:34;;;;;;;;;;;;;;;;;;4955743;28;19928;-49
2022/10/30 03:54:59;;;;;;;;;;;;;;;;;;4959953;28;19933;-49
2022/10/30 03:57:25;;;;;;;;;;;;;;;;;;4950982;28;19918;-49
2022/10/30 03:59:51;;;;;;;;;;;;;;;;;;4958196;28;20424;-49
2022/10/30 04:02:17;;;;;;;;;;;;;;;;;;4949737;28;19922;-49
2022/10/30 04:04:43;;;;;;;;;;;;;;;;;;4953942;28;19921;-49
2022/10/30 04:07:09;;;;;;;;;;;;;;;;;;4947646;28;19934;-49
2022/10/30 04:09:35;;;;;;;;;;;;;;;;;;4955211;28;20348;-49
2022/10/30 04:12:00;;;;;;;;;;;;;;;;;;4960186;28;19915;-49
2022/10/30 04:14:26;;;;;;;;;;;;;;;;;;4956506;28;19968;-50
2022/10/30 04:16:52;;;;;;;;;;;;;;;;;;4946567;28;19914;-49
2022/10/30 04:19:18;;;;;;;;;;;;;;;;;;4962024;28;19928;-49
2022/10/30 04:21:46;;;;;;;;;;;;;;;;;;4946113;28;20432;-49
2022/10/30 04:24:15;;;;;;;;;;;;;;;;;;4947040;28;19921;-49
2022/10/30 04:26:40;;;;;;;;;;;;;;;;;;4949130;28;19922;-50
2022/10/30 04:29:06;;;;;;;;;;;;;;;;;;4961307;28;20016;-49
2022/10/30 04:31:32;;;;;;;;;;;;;;;;;;4948662;28;19918;-50
2022/10/30 04:33:58;;;;;;;;;;;;;;;;;;4959259;28;19944;-49
2022/10/30 04:36:29;;;;;;;;;;;;;;;;;;4949375;28;19949;-49
2022/10/30 04:38:55;;;;;;;;;;;;;;;;;;4951340;28;19921;-50
2022/10/30 04:41:21;;;;;;;;;;;;;;;;;;4951396;28;19948;-49
2022/10/30 04:43:47;;;;;;;;;;;;;;;;;;4943857;28;19995;-49
2022/10/30 04:46:12;;;;;;;;;;;;;;;;;;4947411;28;19940;-49
2022/10/30 04:48:39;;;;;;;;;;;;;;;;;;4947344;28;20467;-49
2022/10/30 04:51:06;;;;;;;;;;;;;;;;;;4953192;28;19923;-49
2022/10/30 04:53:32;;;;;;;;;;;;;;;;;;4943069;28;19931;-49
2022/10/30 04:55:58;;;;;;;;;;;;;;;;;;4948442;28;19921;-50
2022/10/30 04:58:23;;;;;;;;;;;;;;;;;;4941900;28;19917;-49
2022/10/30 05:00:49;;;;;;;;;;;;;;;;;;4954029;28;19923;-49
2022/10/30 05:03:15;;;;;;;;;;;;;;;;;;4960042;28;20428;-49
2022/10/30 05:05:41;;;;;;;;;;;;;;;;;;4954560;28;20304;-49
2022/10/30 05:08:07;;;;;;;;;;;;;;;;;;4955026;28;19926;-49
2022/10/30 05:10:33;;;;;;;;;;;;;;;;;;4960444;28;19921;-49
2022/10/30 05:12:59;;;;;;;;;;;;;;;;;;4949922;28;19928;-49
2022/10/30 05:15:25;;;;;;;;;;;;;;;;;;4960745;28;19924;-49
2022/10/30 05:17:51;;;;;;;;;;;;;;;;;;4950824;28;20300;-49
2022/10/30 05:20:17;;;;;;;;;;;;;;;;;;4955537;28;19926;-49
2022/10/30 05:22:43;;;;;;;;;;;;;;;;;;4942912;28;19923;-49
2022/10/30 05:25:09;;;;;;;;;;;;;;;;;;4943976;28;20431;-50
2022/10/30 05:27:35;;;;;;;;;;;;;;;;;;4958834;28;19922;-50
2022/10/30 05:30:00;;;;;;;;;;;;;;;;;;4954978;28;19971;-49
2022/10/30 05:32:26;;;;;;;;;;;;;;;;;;4961221;28;20513;-49
2022/10/30 05:34:52;;;;;;;;;;;;;;;;;;4965946;28;19978;-49
2022/10/30 05:37:18;;;;;;;;;;;;;;;;;;4959965;28;20323;-51
2022/10/30 05:39:44;;;;;;;;;;;;;;;;;;4951853;28;21423;-49
2022/10/30 05:42:10;;;;;;;;;;;;;;;;;;4940982;28;20404;-49
2022/10/30 05:44:36;;;;;;;;;;;;;;;;;;4961846;28;19926;-49
2022/10/30 05:47:02;;;;;;;;;;;;;;;;;;4965655;28;19924;-49
2022/10/30 05:49:27;;;;;;;;;;;;;;;;;;4954574;28;19922;-49
2022/10/30 05:51:53;;;;;;;;;;;;;;;;;;4952922;28;20004;-49
2022/10/30 05:54:19;;;;;;;;;;;;;;;;;;4951376;28;19922;-49
2022/10/30 05:56:45;;;;;;;;;;;;;;;;;;4945632;28;20373;-49
2022/10/30 05:59:11;;;;;;;;;;;;;;;;;;4945711;28;19929;-50
2022/10/30 06:01:37;;;;;;;;;;;;;;;;;;4960330;28;20286;-49
2022/10/30 06:04:03;;;;;;;;;;;;;;;;;;4954099;28;19969;-49
2022/10/30 06:06:28;;;;;;;;;;;;;;;;;;4957889;28;19945;-49
2022/10/30 06:08:54;;;;;;;;;;;;;;;;;;4948305;28;20789;-49
2022/10/30 06:11:20;;;;;;;;;;;;;;;;;;4951981;28;19921;-50
2022/10/30 06:13:46;;;;;;;;;;;;;;;;;;4954007;28;19921;-50
2022/10/30 06:16:12;;;;;;;;;;;;;;;;;;4947064;28;19966;-49
2022/10/30 06:18:38;;;;;;;;;;;;;;;;;;4953219;28;19917;-49
2022/10/30 06:21:04;;;;;;;;;;;;;;;;;;4952545;28;20012;-49
2022/10/30 06:23:30;;;;;;;;;;;;;;;;;;4952672;28;19929;-49
2022/10/30 06:25:55;;;;;;;;;;;;;;;;;;4939802;28;20479;-49
2022/10/30 06:28:21;;;;;;;;;;;;;;;;;;4962471;28;19979;-50
2022/10/30 06:30:47;;;;;;;;;;;;;;;;;;4938882;28;19918;-49
2022/10/30 06:33:13;;;;;;;;;;;;;;;;;;4946920;28;19914;-50
2022/10/30 06:35:39;;;;;;;;;;;;;;;;;;4963184;28;20399;-50
2022/10/30 06:38:05;;;;;;;;;;;;;;;;;;4948246;28;20600;-49
2022/10/30 06:40:31;;;;;;;;;;;;;;;;;;4952992;28;19924;-49
2022/10/30 06:42:57;;;;;;;;;;;;;;;;;;4948428;28;19961;-49
2022/10/30 06:45:23;;;;;;;;;;;;;;;;;;4960191;28;20380;-49
2022/10/30 06:47:49;;;;;;;;;;;;;;;;;;4950127;28;19928;-50
2022/10/30 06:50:14;;;;;;;;;;;;;;;;;;4947585;28;20013;-49
2022/10/30 06:52:40;;;;;;;;;;;;;;;;;;4938915;28;21605;-49
2022/10/30 06:55:06;;;;;;;;;;;;;;;;;;4958538;28;19925;-49
2022/10/30 06:57:32;;;;;;;;;;;;;;;;;;4952109;28;20550;-49
2022/10/30 06:59:58;;;;;;;;;;;;;;;;;;4956303;28;19932;-49
2022/10/30 07:02:24;;;;;;;;;;;;;;;;;;4959089;28;19928;-49
2022/10/30 07:04:50;;;;;;;;;;;;;;;;;;4956083;28;19929;-49
2022/10/30 07:07:16;;;;;;;;;;;;;;;;;;4954120;28;19972;-49
2022/10/30 07:09:42;;;;;;;;;;;;;;;;;;4949195;28;19945;-50
2022/10/30 07:12:07;;;;;;;;;;;;;;;;;;4955036;28;19921;-49
2022/10/30 07:14:33;;;;;;;;;;;;;;;;;;4949706;28;19921;-49
2022/10/30 07:16:59;;;;;;;;;;;;;;;;;;4951748;28;20407;-49
2022/10/30 07:19:25;;;;;;;;;;;;;;;;;;4953367;28;19922;-49
2022/10/30 07:21:51;;;;;;;;;;;;;;;;;;4945310;28;19918;-50
2022/10/30 07:24:17;;;;;;;;;;;;;;;;;;4948123;28;19933;-49
2022/10/30 07:26:42;;;;;;;;;;;;;;;;;;4955319;28;20332;-49
2022/10/30 07:29:08;;;;;;;;;;;;;;;;;;4957583;28;19985;-49
2022/10/30 07:31:34;;;;;;;;;;;;;;;;;;4940102;28;19934;-50
2022/10/30 07:34:00;;;;;;;;;;;;;;;;;;4946731;28;20777;-50
2022/10/30 07:36:26;;;;;;;;;;;;;;;;;;4946603;28;19917;-49
2022/10/30 07:38:52;;;;;;;;;;;;;;;;;;4959376;28;19926;-49
2022/10/30 07:41:18;;;;;;;;;;;;;;;;;;4966129;28;20024;-50
2022/10/30 07:43:44;;;;;;;;;;;;;;;;;;4958718;28;20299;-50
2022/10/30 07:46:09;;;;;;;;;;;;;;;;;;4976200;28;19977;-50
2022/10/30 07:48:35;;;;;;;;;;;;;;;;;;4962747;28;19928;-50
2022/10/30 07:51:01;;;;;;;;;;;;;;;;;;4962320;28;20202;-50
2022/10/30 07:53:27;;;;;;;;;;;;;;;;;;4963945;28;21080;-51
2022/10/30 07:55:53;;;;;;;;;;;;;;;;;;4975152;28;19924;-50
2022/10/30 07:58:19;;;;;;;;;;;;;;;;;;4969453;28;19930;-50
2022/10/30 08:00:45;;;;;;;;;;;;;;;;;;4959877;28;19928;-50
2022/10/30 08:03:11;;;;;;;;;;;;;;;;;;4965915;28;20417;-50
2022/10/30 08:05:37;;;;;;;;;;;;;;;;;;4971598;28;20400;-49
2022/10/30 08:08:03;;;;;;;;;;;;;;;;;;4971549;28;19928;-50
2022/10/30 08:10:29;;;;;;;1.60;1.60;;;;;;;;;;4970551;28;19987;-50
2022/10/30 08:12:55;;;;;;;;;;;;;;;;;;4954595;28;20022;-49
2022/10/30 08:15:21;;;;;;;;;;;;;;;;;;4971651;28;19922;-50
2022/10/30 08:17:47;;;;;;;;;;;;;;;;;;4949319;28;20483;-49
2022/10/30 08:20:12;;;;;;;;;;;;;;;;;;4956945;28;20274;-50
2022/10/30 08:22:38;;;;;;;;;;;;;;;;;;4957483;28;19924;-49
2022/10/30 08:25:04;;;;;;;;;;;;;;;;;;4959823;28;20360;-50
2022/10/30 08:27:30;;;;;;;;;;;;;;;;;;4966540;28;19919;-50
2022/10/30 08:29:56;;;;;;;;;;;;;;;;;;4959243;28;20056;-50
2022/10/30 08:32:22;;;;;;;;;;;;;;;;;;4972137;28;20282;-50
2022/10/30 08:34:48;;;;;;;;;;;;;;;;;;4976281;28;19928;-50
2022/10/30 08:37:13;;;;;;;;;;;;;;;;;;4958556;28;19921;-50
2022/10/30 08:39:39;;;;;;;1.45;1.45;;;;;;;;;;4959496;28;20012;-50
2022/10/30 08:42:05;;;;;;;;;;;;;;;;;;4956713;28;20026;-50
2022/10/30 08:44:31;;;;;;;;;;;;;;;;;;4964743;28;20152;-50
2022/10/30 08:46:57;;;;;;;;;;;;;;;;;;4945604;28;19926;-50
2022/10/30 08:49:23;;;;;;;;;;;;;;;;;;4965304;28;20012;-50
2022/10/30 08:51:49;;;;;;;;;;;;;;;;;;4967316;28;19929;-50
2022/10/30 08:54:15;;;;;;;;;;;;;;;;;;4972584;28;19917;-50
2022/10/30 08:56:40;;;;;;;;;;;;;;;;;;4964101;28;20395;-50
2022/10/30 08:59:06;;;;;;;;;;;;;;;;;;4960382;28;19928;-51
2022/10/30 09:01:32;;;;;;;;;;;;;;;;;;4954987;28;20020;-51
2022/10/30 09:03:58;;;;;;;;;;;;;;;;;;4957727;28;19928;-51
2022/10/30 09:06:24;;;;;;;;;;;;;;;;;;4968249;28;20373;-51
2022/10/30 09:08:50;;;;;;;;;;;;;;;;;;4963591;28;19917;-51
2022/10/30 09:11:16;;;;;;;;;;;;;;;;;;4932223;28;19920;-50
2022/10/30 09:13:42;;;;;;;;;;;;;;;;;;4933424;28;19917;-51
2022/10/30 09:16:08;;;;;;;;;;;;;;;;;;4939017;28;19929;-51
2022/10/30 09:18:34;;;;;;;;;;;;;;;;;;4967479;28;19914;-50
2022/10/30 09:20:59;;;;;;;;;;;;;;;;;;4967528;28;19921;-51
2022/10/30 09:23:25;;;;;;;;;;;;;;;;;;4968286;28;19922;-50
2022/10/30 09:25:51;;;;;;;;;;;;;;;;;;4966621;28;19961;-50
2022/10/30 09:28:17;;;;;;;1.50;1.50;;;;;;;;;;4967201;28;20436;-50
2022/10/30 09:30:43;;;;;;;1.13;1.13;;;;;;;;;;4976899;28;20204;-50
2022/10/30 09:33:09;;;;;;;;;;;;;;;;;;4976577;28;20616;-51
2022/10/30 09:35:35;;;;;;;;;;;;;;;;;;4976190;28;19967;-50
2022/10/30 09:38:01;;;;;;;;;;;;;;;;;;4972100;28;19977;-51
2022/10/30 09:40:28;;;;;;;;;;;;;;;;;;4975849;28;19930;-50
2022/10/30 09:42:54;;;;;;;;;;;;;;;;;;4975879;28;19922;-51
2022/10/30 09:45:20;;;;;;;;;;;;;;;;;;4975049;28;20293;-50
2022/10/30 09:47:46;;;;;;;;;;;;;;;;;;4978431;28;19952;-50
2022/10/30 09:50:12;;;;;;;;;;;;;;;;;;4975788;28;20020;-50
2022/10/30 09:52:38;;;;;;;;;;;;;;;;;;4977107;28;19936;-50
2022/10/30 09:55:04;;;;;;;;;;;;;;;;;;4967027;28;19986;-50
2022/10/30 09:57:29;;;;;;;;;;;;;;;;;;4967696;28;19949;-50
2022/10/30 09:59:55;;;;;;;;;;;;;;;;;;4982720;28;19917;-50
2022/10/30 10:02:21;;;;;;;;;;;;;;;;;;4972255;28;19929;-50
2022/10/30 10:04:47;;;;;;;;;;;;;;;;;;4970769;28;20405;-50
2022/10/30 10:07:13;;;;;;;;;;;;;;;;;;4971954;28;20002;-50
2022/10/30 10:09:40;;;;;;;;;;;;;;;;;;4965905;28;21072;-50
2022/10/30 10:12:06;;;;;;;;;;;;;;;;;;4976860;28;19920;-49
2022/10/30 10:14:32;;;;;;;;;;;;;;;;;;4967406;28;19921;-50
2022/10/30 10:16:58;;;;;;;;;;;;;;;;;;4970101;28;19924;-51
2022/10/30 10:19:24;;;;;;;;;;;;;;;;;;4976422;28;20056;-51
2022/10/30 10:21:50;;;;;;;;;;;;;;;;;;4971474;28;20475;-51
2022/10/30 10:24:16;;;;;;;;;;;;;;;;;;4977757;28;19975;-51
2022/10/30 10:26:41;;;;;;;;;;;;;;;;;;4974727;28;19922;-51
2022/10/30 10:29:07;;;;;;;;;;;;;;;;;;4971663;28;19944;-51
2022/10/30 10:31:33;;;;;;;;;;;;;;;;;;4968556;28;19914;-51
2022/10/30 10:33:59;;;;;;;;;;;;;;;;;;4973949;28;20689;-49
2022/10/30 10:36:25;;;;;;;;;;;;;;;;;;4969591;28;19920;-51
2022/10/30 10:38:51;;;;;;;;;;;;;;;;;;4972056;28;19929;-51
2022/10/30 10:41:20;;;;;;;;;;;;;;;;;;4977496;28;19928;-51
2022/10/30 10:43:46;;;;;;;;;;;;;;;;;;4936869;28;19972;-51
2022/10/30 10:46:12;;;;;;;;;;;;;;;;;;4954963;28;20445;-49
2022/10/30 10:48:37;;;;;;;;;;;;;;;;;;4956935;28;20011;-50
2022/10/30 10:51:03;;;;;;;;;;;;;;;;;;4964360;28;20044;-51
2022/10/30 10:53:29;;;;;;;;;;;;;;;;;;4965223;28;20004;-51
2022/10/30 10:55:55;;;;;;;;;;;;;;;;;;4936783;28;20719;-49
2022/10/30 10:58:21;;;;;;;;;;;;;;;;;;4953396;28;19945;-50
2022/10/30 11:00:47;;;;;;;;;;;;;;;;;;4948692;28;19926;-50
2022/10/30 11:03:13;;;;;;;;;;;;;;;;;;4974257;28;19921;-52
2022/10/30 11:05:38;;;;;;;;;;;;;;;;;;4945171;28;19914;-52
2022/10/30 11:08:04;;;;;;;;;;;;;;;;;;4966301;28;19936;-49
2022/10/30 11:10:30;;;;;;;;;;;;;;;;;;4961828;28;20401;-51
2022/10/30 11:12:56;;;;;;;;;;;;;;;;;;4946281;28;19929;-51
2022/10/30 11:15:22;;;;;;;;;;;;;;;;;;4957382;28;19988;-51
2022/10/30 11:17:48;;;;;;;;;;;;;;;;;;4968683;28;19922;-52
2022/10/30 11:20:14;;;;;;;;;;;;;;;;;;4973844;28;19925;-51
2022/10/30 11:22:40;;;;;;;;;;;;;;;;;;4980896;28;19914;-50
2022/10/30 11:25:06;;;;;;;;;;;;;;;;;;4959933;28;19913;-48
2022/10/30 11:27:31;;;;;;;;;;;;;;;;;;4959950;28;19956;-52
2022/10/30 11:29:57;;;;;;;;;;;;;;;;;;4960695;28;19917;-51
2022/10/30 11:32:25;;;;;;;;;;;;;;;;;;4971550;28;19928;-51
2022/10/30 11:34:51;;;;;;;;;;;;;;;;;;4970195;28;20054;-51
2022/10/30 11:37:17;;;;;;;;;;;;;;;;;;4958677;28;19913;-50
2022/10/30 11:39:42;;;;;;;;;;;;;;;;;;4969645;28;19924;-51
2022/10/30 11:42:08;;;;;;;;;;;;;;;;;;4960660;28;19917;-51
2022/10/30 11:44:34;;;;;;;;;;;;;;;;;;4972362;28;20373;-51
2022/10/30 11:47:00;;;;;;;;;;;;;;;;;;4962176;28;19921;-51
2022/10/30 11:49:26;;;;;;;;;;;;;;;;;;4968289;28;19918;-51
2022/10/30 11:51:52;;;;;;;;;;;;;;;;;;4970941;28;20381;-51
2022/10/30 11:54:18;;;;;;;;;;;;;;;;;;4963967;28;21321;-50
2022/10/30 11:56:43;;;;;;;;;;;;;;;;;;4968886;28;19914;-51
2022/10/30 11:59:09;;;;;;;;;;;;;;;;;;4971913;28;19917;-50
2022/10/30 12:01:35;;;;;;;;;;;;;;;;;;4974464;28;19922;-51
2022/10/30 12:04:01;;;;;;;;;;;;;;;;;;4957591;28;20396;-51
2022/10/30 12:06:27;;;;;;;;;;;;;;;;;;4974157;28;19925;-51
2022/10/30 12:08:53;;;;;;;;;;;;;;;;;;4966727;28;19918;-51
2022/10/30 12:11:19;;;;;;;;;;;;;;;;;;4962152;28;20391;-51
2022/10/30 12:13:45;;;;;;;;;;;;;;;;;;4960121;28;19920;-52
2022/10/30 12:16:11;;;;;;;;;;;;;;;;;;4967454;28;20061;-51
2022/10/30 12:18:37;;;;;;;;;;;;;;;;;;4971625;28;19922;-50
2022/10/30 12:21:03;;;;;;;;;;;;;;;;;;4967693;28;19921;-50
2022/10/30 12:23:29;;;;;;;;;;;;;;;;;;4946813;28;20280;-49
2022/10/30 12:25:55;;;;;;;;;;;;;;;;;;4958464;28;19924;-50
2022/10/30 12:28:20;;;;;;;;;;;;;;;;;;4950767;28;19925;-51
2022/10/30 12:30:46;;;;;;;;;;;;;;;;;;4938230;28;20552;-50
2022/10/30 12:33:12;;;;;;;;;;;;;;;;;;4949599;28;19953;-50
2022/10/30 12:35:38;;;;;;;;;;;;;;;;;;4947454;28;19922;-50
2022/10/30 12:38:04;;;;;;;;;;;;;;;;;;4950021;28;20241;-50
2022/10/30 12:40:30;;;;;;;;;;;;;;;;;;4964388;28;19921;-50
2022/10/30 12:42:56;;;;;;;;;;;;;;;;;;4957416;28;20311;-50
2022/10/30 12:45:22;;;;;;;;;;;;;;;;;;4949106;28;20483;-50
2022/10/30 12:47:48;;;;;;;;;;;;;;;;;;4945475;28;19926;-50
2022/10/30 12:50:14;;;;;;;;;;;;;;;;;;4949181;28;19980;-50
2022/10/30 12:52:40;;;;;;;;;;;;;;;;;;4962584;28;19922;-50
2022/10/30 12:55:05;;;;;;;;;;;;;;;;;;4961133;28;21030;-50
2022/10/30 12:57:31;;;;;;;;;;;;;;;;;;4956934;28;20017;-53
2022/10/30 12:59:57;;;;;;;;;;;;;;;;;;4964602;28;19963;-52
2022/10/30 13:02:23;;;;;;;;;;;;;;;;;;4966365;28;19913;-54
2022/10/30 13:04:49;;;;;;;;;;;;;;;;;;4969212;28;19922;-52
2022/10/30 13:07:15;;;;;;;;;;;;;;;;;;4970131;28;19929;-51
2022/10/30 13:09:41;;;;;;;;;;;;;;;;;;4944733;28;20716;-52
2022/10/30 13:12:07;;;;;;;;;;;;;;;;;;4960533;28;19922;-52
2022/10/30 13:14:33;;;;;;;;;;;;;;;;;;4950726;28;20500;-52
2022/10/30 13:16:59;;;;;;;;;;;;;;;;;;4960482;28;20438;-52
2022/10/30 13:19:26;;;;;;;;;;;;;;;;;;4961819;28;19921;-52
2022/10/30 13:21:52;;;;;;;;;;;;;;;;;;4950275;28;20444;-52
2022/10/30 13:24:18;;;;;;;;;;;;;;;;;;4963767;28;19948;-51
2022/10/30 13:26:44;;;;;;;;;;;;;;;;;;4958420;28;19922;-52
2022/10/30 13:29:10;;;;;;;;;;;;;;;;;;4949729;28;19930;-50
2022/10/30 13:31:36;;;;;;;;;;;;;;;;;;4950844;28;19933;-50
2022/10/30 13:34:02;;;;;;;;;;;;;;;;;;4954711;28;20369;-49
2022/10/30 13:36:28;;;;;;;;;;;;;;;;;;4972069;28;19944;-52
2022/10/30 13:38:54;;;;;;;;;;;;;;;;;;4945678;28;19922;-52
2022/10/30 13:41:19;;;;;;;;;;;;;;;;;;4960765;28;20799;-51
2022/10/30 13:43:45;;;;;;;;;;;;;;;;;;4961804;28;20299;-50
2022/10/30 13:46:11;;;;;;;;;;;;;;;;;;4961021;28;19922;-50
2022/10/30 13:48:37;;;;;;;;;;;;;;;;;;4965599;28;19929;-51
2022/10/30 13:51:03;;;;;;;;;;;;;;;;;;4965226;28;19922;-52
2022/10/30 13:53:29;;;;;;;;;;;;;;;;;;4954367;28;20018;-52
2022/10/30 13:55:55;;;;;;;;;;;;;;;;;;4951536;28;19914;-52
2022/10/30 13:58:21;;;;;;;;;;;;;;;;;;4952872;28;19918;-51
2022/10/30 14:00:47;;;;;;;;;;;;;;;;;;4953200;28;20051;-50
2022/10/30 14:03:13;;;;;;;;;;;;;;;;;;4961380;28;20381;-50
2022/10/30 14:05:38;;;;;;;;;;;;;;;;;;4948692;28;19928;-50
2022/10/30 14:08:04;;;;;;;;;;;;;;;;;;4954853;28;19922;-52
2022/10/30 14:10:30;;;;;;;;;;;;;;;;;;4955287;28;19968;-52
2022/10/30 14:12:56;;;;;;;;;;;;;;;;;;4961500;28;19960;-51
2022/10/30 14:15:22;;;;;;;;;;;;;;;;;;4960837;28;20379;-51
2022/10/30 14:17:48;;;;;;;;;;;;;;;;;;4959061;28;19969;-51
2022/10/30 14:20:14;;;;;;;;;;;;;;;;;;4951039;28;19926;-51
2022/10/30 14:22:40;;;;;;;;;;;;;;;;;;4945319;28;20415;-51
2022/10/30 14:25:05;;;;;;;;;;;;;;;;;;4953184;28;19922;-53
2022/10/30 14:27:31;;;;;;;;;;;;;;;;;;4949311;28;20431;-52
2022/10/30 14:29:57;;;;;;;;;;;;;;;;;;4954490;28;19914;-50
2022/10/30 14:32:23;;;;;;;;;;;;;;;;;;4964156;28;20317;-51
2022/10/30 14:34:49;;;;;;;;;;;;;;;;;;4963999;28;19924;-51
2022/10/30 14:37:15;;;;;;;;;;;;;;;;;;4956981;28;19964;-51
2022/10/30 14:39:41;;;;;;;;;;;;;;;;;;4937657;28;19929;-51
2022/10/30 14:42:07;;;;;;;;;;;;;;;;;;4952327;28;19945;-52
2022/10/30 14:44:32;;;;;;;;;;;;;;;;;;4953351;28;19959;-53
2022/10/30 14:46:58;;;;;;;;;;;;;;;;;;4945517;28;19921;-52
2022/10/30 14:49:24;;;;;;;;;;;;;;;;;;4950165;28;20013;-53
2022/10/30 14:51:50;;;;;;;;;;;;;;;;;;4958568;28;20332;-54
2022/10/30 14:54:16;;;;;;;;;;;;;;;;;;4968746;28;20020;-51
2022/10/30 14:56:42;;;;;;;;;;;;;;;;;;4964045;28;19922;-51
2022/10/30 14:59:08;;;;;;;;;;;;;;;;;;4961974;28;20083;-51
2022/10/30 15:01:34;;;;;;;;;;;;;;;;;;4966696;28;19968;-51
2022/10/30 15:04:00;;;;;;;;;;;;;;;;;;4943734;28;20309;-52
2022/10/30 15:06:25;;;;;;;;;;;;;;;;;;4958200;28;19940;-52
2022/10/30 15:08:51;;;;;;;;;;;;;;;;;;4956658;28;19922;-54
2022/10/30 15:11:17;;;;;;;;;;;;;;;;;;4951936;28;19921;-52
2022/10/30 15:13:43;;;;;;;;;;;;;;;;;;4959817;28;19941;-53
2022/10/30 15:16:09;;;;;;;;;;;;;;;;;;4947878;28;19922;-53
2022/10/30 15:18:35;;;;;;;;;;;;;;;;;;4946666;28;20667;-52
2022/10/30 15:21:01;;;;;;;;;;;;;;;;;;4967728;28;19925;-52
2022/10/30 15:23:28;;;;;;;;;;;;;;;;;;4977235;28;19963;-52
2022/10/30 15:25:54;;;;;;;;;;;;;;;;;;4969478;28;19977;-52
2022/10/30 15:28:19;;;;;;;;;;;;;;;;;;4957813;28;19921;-52
2022/10/30 15:30:45;;;;;;;;;;;;;;;;;;4948435;28;19929;-51
2022/10/30 15:33:11;;;;;;;;;;;;;;;;;;4958015;28;20381;-51
2022/10/30 15:35:37;;;;;;;;;;;;;;;;;;4959817;28;19971;-51
2022/10/30 15:38:03;;;;;;;;;;;;;;;;;;4952766;28;19917;-52
2022/10/30 15:40:29;;;;;;;;;;;;;;;;;;4955934;28;19936;-52
2022/10/30 15:42:55;;;;;;;;;;;;;;;;;;4955669;28;19933;-53
2022/10/30 15:45:21;;;;;;;;;;;;;;;;;;4952122;28;19921;-52
2022/10/30 15:47:47;;;;;;;;;;;;;;;;;;4973820;28;19937;-52
2022/10/30 15:50:12;;;;;;;;;;;;;;;;;;4954067;28;20301;-53
2022/10/30 15:52:38;;;;;;;;;;;;;;;;;;4952494;28;19945;-53
2022/10/30 15:55:04;;;;;;;;;;;;;;;;;;4955725;28;20072;-53
2022/10/30 15:57:30;;;;;;;;;;;;;;;;;;4947286;28;20483;-55
2022/10/30 15:59:56;;;;;;;;;;;;;;;;;;4945633;28;19925;-53
2022/10/30 16:02:22;;;;;;;;;;;;;;;;;;4949198;28;19925;-53
2022/10/30 16:04:48;;;;;;;;;;;;;;;;;;4961260;28;19940;-53
2022/10/30 16:07:14;;;;;;;;;;;;;;;;;;4951468;28;20618;-53
2022/10/30 16:09:39;;;;;;;;;;;;;;;;;;4956544;28;19918;-51
2022/10/30 16:12:05;;;;;;;;;;;;;;;;;;4959715;28;22058;-53
2022/10/30 16:14:31;;;;;;;;;;;;;;;;;;4955014;28;20011;-52
2022/10/30 16:16:57;;;;;;;;;;;;;;;;;;4957193;28;19922;-51
2022/10/30 16:19:23;;;;;;;;;;;;;;;;;;4974581;28;19913;-52
2022/10/30 16:21:49;;;;;;;;;;;;;;;;;;4960926;28;20009;-53
2022/10/30 16:24:16;;;;;;;;;;;;;;;;;;4947141;28;20012;-52
2022/10/30 16:26:42;;;;;;;;;;;;;;;;;;4955699;28;19945;-51
2022/10/30 16:29:08;;;;;;;;;;;;;;;;;;4967667;28;20001;-54
2022/10/30 16:31:34;;;;;;;;;;;;;;;;;;4974930;28;19922;-53
2022/10/30 16:34:00;;;;;;;;;;;;;;;;;;4959014;28;19932;-52